Time;durP1;ratioP1;P1;durP2;ratioP2;P2;SDS_P1;SDS_P2;PMS_P1;PMS_P2;Temp;Humidity;BMP_temperature;BMP_pressure;BME280_temperature;BME280_humidity;BME280_pressure;Samples;Min_cycle;Max_cycle;Signal;HPM_P1;HPM_P2
2022/01/30 00:01:45;;;;;;;4.68;4.28;;;3.30;87.90;;;;;;4998809;28;20702;-65
2022/01/30 00:04:12;;;;;;;4.40;4.00;;;3.30;88.00;;;;;;5004605;28;20571;-64
2022/01/30 00:06:40;;;;;;;4.47;4.07;;;3.30;87.90;;;;;;5009690;28;20232;-65
2022/01/30 00:09:14;;;;;;;5.30;4.90;;;3.20;87.90;;;;;;5004556;28;20651;-65
2022/01/30 00:11:43;;;;;;;4.35;3.95;;;3.20;88.10;;;;;;5005618;28;20220;-64
2022/01/30 00:14:12;;;;;;;5.00;4.50;;;3.10;88.70;;;;;;5006515;28;20201;-66
2022/01/30 00:16:40;;;;;;;4.50;4.10;;;3.10;89.00;;;;;;5001608;28;20278;-64
2022/01/30 00:19:17;;;;;;;4.82;4.43;;;3.00;88.90;;;;;;5002581;28;20227;-65
2022/01/30 00:21:48;;;;;;;4.40;4.03;;;3.00;88.60;;;;;;5004501;28;20238;-65
2022/01/30 00:24:22;;;;;;;5.07;3.97;;;2.90;88.50;;;;;;5006941;28;20580;-66
2022/01/30 00:26:50;;;;;;;4.15;3.85;;;3.00;88.90;;;;;;4998503;28;20309;-65
2022/01/30 00:29:17;;;;;;;4.55;4.15;;;2.90;89.30;;;;;;5003451;28;20204;-65
2022/01/30 00:31:44;;;;;;;4.30;4.00;;;2.90;89.10;;;;;;5003703;28;20359;-65
2022/01/30 00:34:12;;;;;;;4.43;3.95;;;2.90;88.90;;;;;;5008945;28;20855;-65
2022/01/30 00:36:39;;;;;;;4.47;3.95;;;2.80;89.00;;;;;;5004589;28;20646;-65
2022/01/30 00:39:06;;;;;;;4.30;4.00;;;2.80;89.40;;;;;;5003835;28;20216;-66
2022/01/30 00:41:34;;;;;;;4.72;4.32;;;2.80;89.90;;;;;;5008889;28;20197;-65
2022/01/30 00:44:01;;;;;;;5.30;4.80;;;2.70;89.90;;;;;;5006081;28;20620;-65
2022/01/30 00:46:28;;;;;;;4.70;4.30;;;2.70;89.70;;;;;;5008497;28;20216;-66
2022/01/30 00:48:55;;;;;;;4.30;3.75;;;2.70;89.80;;;;;;5011917;28;20615;-66
2022/01/30 00:51:24;;;;;;;4.28;3.97;;;2.70;90.00;;;;;;5006617;28;20279;-65
2022/01/30 00:53:51;;;;;;;4.82;4.43;;;2.70;90.00;;;;;;5006948;28;20200;-65
2022/01/30 00:56:18;;;;;;;4.35;3.95;;;2.70;90.10;;;;;;5003692;28;20286;-66
2022/01/30 00:58:45;;;;;;;4.63;4.22;;;2.70;90.10;;;;;;5007369;28;20857;-65
2022/01/30 01:01:12;;;;;;;4.30;3.95;;;2.70;90.10;;;;;;5001898;28;20189;-65
2022/01/30 01:03:39;;;;;;;4.60;4.20;;;2.60;90.30;;;;;;5005477;28;20652;-65
2022/01/30 01:06:06;;;;;;;4.90;4.50;;;2.60;90.10;;;;;;5008583;28;20216;-65
2022/01/30 01:08:46;;;;;;;4.70;4.30;;;2.70;90.00;;;;;;4991811;28;20220;-65
2022/01/30 01:11:38;;;;;;;4.38;4.05;;;2.70;90.10;;;;;;4980258;28;20267;-65
2022/01/30 01:20:51;;;;;;;4.55;4.15;;;2.60;90.30;;;;;;5006541;28;20236;-65
2022/01/30 01:25:27;;;;;;;4.65;4.25;;;2.60;90.20;;;;;;4955113;29;20336;-65
2022/01/30 01:27:54;;;;;;;5.15;4.65;;;2.50;90.40;;;;;;5003638;28;20649;-65
2022/01/30 01:30:21;;;;;;;4.57;4.18;;;2.50;90.70;;;;;;5016800;28;20200;-65
2022/01/30 01:32:48;;;;;;;5.28;4.78;;;2.40;91.00;;;;;;5014528;28;20303;-64
2022/01/30 01:35:15;;;;;;;5.15;4.63;;;2.40;90.80;;;;;;5010726;28;20216;-65
2022/01/30 01:37:42;;;;;;;4.18;3.78;;;2.40;90.60;;;;;;5010608;28;20655;-64
2022/01/30 01:40:10;;;;;;;5.10;4.70;;;2.40;90.50;;;;;;5009343;28;20228;-64
2022/01/30 01:42:39;;;;;;;5.55;5.05;;;2.30;90.50;;;;;;5008367;28;20223;-65
2022/01/30 01:45:07;;;;;;;4.78;4.38;;;2.30;90.70;;;;;;5007885;28;20571;-65
2022/01/30 01:47:34;;;;;;;4.32;3.92;;;2.30;91.00;;;;;;5017783;28;20283;-66
2022/01/30 01:50:01;;;;;;;4.78;4.38;;;2.20;91.10;;;;;;5030083;28;20205;-65
2022/01/30 01:52:30;;;;;;;4.38;4.03;;;2.20;91.30;;;;;;5034149;28;20204;-65
2022/01/30 01:54:59;;;;;;;4.40;4.10;;;2.20;91.30;;;;;;5019582;28;20193;-64
2022/01/30 01:57:27;;;;;;;5.43;4.95;;;2.20;91.30;;;;;;5007882;28;20282;-65
2022/01/30 01:59:57;;;;;;;4.18;3.85;;;2.20;91.10;;;;;;5008301;28;20220;-65
2022/01/30 02:02:25;;;;;;;4.88;4.50;;;2.20;91.10;;;;;;5002836;28;20222;-65
2022/01/30 02:04:54;;;;;;;4.72;4.32;;;2.20;91.00;;;;;;5006686;28;20208;-65
2022/01/30 02:10:22;;;;;;;4.82;4.43;;;2.20;91.20;;;;;;4977919;28;20203;-65
2022/01/30 02:12:50;;;;;;;5.40;4.90;;;2.20;91.00;;;;;;5008178;28;20758;-65
2022/01/30 02:15:46;;;;;;;5.00;4.28;;;2.20;91.10;;;;;;5007433;28;20197;-64
2022/01/30 02:24:03;;;;;;;4.60;4.30;;;1.90;91.70;;;;;;4996899;28;20223;-65
2022/01/30 02:26:36;;;;;;;5.22;4.78;;;2.00;92.00;;;;;;5007227;28;20231;-65
2022/01/30 02:29:04;;;;;;;4.32;4.03;;;2.00;91.40;;;;;;5004039;28;20220;-65
2022/01/30 02:31:35;;;;;;;4.68;4.28;;;2.00;91.70;;;;;;5008159;28;20679;-64
2022/01/30 02:34:02;;;;;;;4.43;4.03;;;2.00;92.00;;;;;;5005338;28;20250;-65
2022/01/30 02:36:29;;;;;;;4.20;3.90;;;1.90;92.10;;;;;;5006570;28;20208;-65
2022/01/30 02:39:00;;;;;;;4.63;4.22;;;1.90;92.10;;;;;;5002999;28;20737;-65
2022/01/30 02:41:27;;;;;;;4.70;4.30;;;1.90;91.90;;;;;;5008389;28;20670;-64
2022/01/30 02:44:07;;;;;;;4.45;4.05;;;1.90;91.70;;;;;;5006813;28;20719;-65
2022/01/30 02:46:39;;;;;;;4.75;4.32;;;1.90;91.90;;;;;;5005009;28;20235;-65
2022/01/30 02:49:25;;;;;;;4.20;3.88;;;1.80;91.90;;;;;;5004947;28;20239;-65
2022/01/30 02:51:57;;;;;;;5.10;4.70;;;1.80;91.90;;;;;;5007157;28;20206;-65
2022/01/30 02:54:26;;;;;;;4.80;4.50;;;1.80;92.00;;;;;;5006921;28;20216;-65
2022/01/30 02:56:53;;;;;;;4.28;3.95;;;1.80;92.20;;;;;;5004883;28;20231;-65
2022/01/30 02:59:20;;;;;;;3.97;3.67;;;1.80;92.50;;;;;;5008020;28;20722;-65
2022/01/30 03:01:47;;;;;;;4.85;4.45;;;1.80;92.40;;;;;;5007338;28;20741;-64
2022/01/30 03:04:14;;;;;;;4.75;4.30;;;1.90;92.30;;;;;;5004125;28;20220;-65
2022/01/30 03:06:42;;;;;;;5.00;4.50;;;1.90;92.30;;;;;;5007221;28;20224;-65
2022/01/30 03:09:10;;;;;;;4.07;3.78;;;1.80;92.30;;;;;;5004046;28;20216;-65
2022/01/30 03:11:39;;;;;;;4.30;3.90;;;1.90;92.10;;;;;;5002271;28;20283;-64
2022/01/30 03:14:06;;;;;;;4.55;4.15;;;1.90;92.30;;;;;;5005775;28;20598;-65
2022/01/30 03:16:34;;;;;;;4.60;4.30;;;1.90;92.30;;;;;;5004840;28;20228;-64
2022/01/30 03:19:01;;;;;;;5.30;4.90;;;1.90;92.30;;;;;;5010144;28;20228;-65
2022/01/30 03:21:28;;;;;;;5.13;4.72;;;1.90;92.20;;;;;;5017373;28;20262;-65
2022/01/30 03:23:55;;;;;;;5.07;4.68;;;1.80;92.20;;;;;;5008041;28;20239;-66
2022/01/30 03:26:22;;;;;;;4.55;4.25;;;1.80;92.50;;;;;;5021350;28;20219;-64
2022/01/30 03:28:53;;;;;;;5.10;4.65;;;1.70;92.60;;;;;;5015831;28;20221;-65
2022/01/30 03:31:21;;;;;;;5.10;4.70;;;1.70;92.60;;;;;;5006516;28;20200;-66
2022/01/30 03:33:48;;;;;;;4.82;4.43;;;1.70;92.60;;;;;;5005847;28;20220;-64
2022/01/30 03:36:15;;;;;;;5.25;4.85;;;1.70;92.50;;;;;;5005110;28;20304;-64
2022/01/30 03:38:42;;;;;;;4.90;4.50;;;1.70;92.50;;;;;;5006373;28;20235;-65
2022/01/30 03:41:09;;;;;;;4.70;4.30;;;1.70;92.60;;;;;;5009343;28;20200;-66
2022/01/30 03:43:36;;;;;;;4.20;3.90;;;1.70;92.60;;;;;;5002252;28;20286;-64
2022/01/30 03:46:05;;;;;;;4.65;3.90;;;1.60;92.60;;;;;;5006016;28;20216;-65
2022/01/30 03:48:32;;;;;;;4.60;4.30;;;1.60;92.70;;;;;;5000748;28;20220;-64
2022/01/30 03:50:59;;;;;;;3.67;3.38;;;1.60;92.60;;;;;;5006067;28;20269;-64
2022/01/30 03:53:26;;;;;;;4.10;3.80;;;1.60;92.70;;;;;;4993005;28;20217;-64
2022/01/30 03:58:37;;;;;;;5.00;4.60;;;1.60;92.80;;;;;;4962519;28;20731;-71
2022/01/30 04:01:05;;;;;;;4.88;4.47;;;1.50;92.90;;;;;;4966036;28;20205;-72
2022/01/30 04:03:32;;;;;;;4.80;4.38;;;1.50;92.90;;;;;;4987212;28;20220;-72
2022/01/30 04:06:00;;;;;;;5.53;5.03;;;1.50;92.90;;;;;;5003675;28;20235;-72
2022/01/30 04:08:27;;;;;;;5.30;4.90;;;1.40;92.90;;;;;;4982573;28;20656;-72
2022/01/30 04:10:54;;;;;;;4.70;4.28;;;1.40;93.10;;;;;;4975906;28;20273;-72
2022/01/30 04:13:22;;;;;;;5.38;4.97;;;1.40;93.40;;;;;;4974408;28;20763;-72
2022/01/30 04:15:49;;;;;;;5.13;4.72;;;1.30;93.40;;;;;;4973032;28;20209;-72
2022/01/30 04:18:18;;;;;;;4.97;4.55;;;1.30;93.40;;;;;;4981412;28;20217;-72
2022/01/30 04:20:45;;;;;;;4.47;4.18;;;1.30;93.60;;;;;;4987008;28;20316;-72
2022/01/30 04:23:13;;;;;;;4.88;4.47;;;1.30;93.50;;;;;;4969125;28;20280;-72
2022/01/30 04:25:40;;;;;;;4.32;4.03;;;1.40;93.60;;;;;;4974135;28;20210;-72
2022/01/30 04:28:07;;;;;;;4.40;4.10;;;1.40;93.60;;;;;;4968501;28;20230;-71
2022/01/30 04:30:35;;;;;;;4.03;3.75;;;1.40;93.40;;;;;;4977732;28;20243;-71
2022/01/30 04:33:03;;;;;;;4.80;4.50;;;1.40;93.30;;;;;;4980145;28;20271;-71
2022/01/30 04:35:32;;;;;;;4.18;3.88;;;1.40;93.40;;;;;;4974855;28;20197;-72
2022/01/30 04:38:13;;;;;;;5.05;4.55;;;1.30;93.60;;;;;;4971214;28;20663;-71
2022/01/30 04:57:39;;;;;;;4.60;4.28;;;1.40;93.60;;;;;;5076694;27;20611;-73
2022/01/30 05:00:23;;;;;;;4.88;4.47;;;1.40;93.70;;;;;;5042931;28;20203;-72
2022/01/30 05:02:58;;;;;;;4.50;4.20;;;1.30;93.90;;;;;;5039830;28;20316;-72
2022/01/30 05:08:07;;;;;;;4.60;4.20;;;1.20;93.90;;;;;;5034103;28;20276;-72
2022/01/30 05:10:34;;;;;;;4.85;4.40;;;1.20;93.70;;;;;;5041761;28;20202;-72
2022/01/30 05:13:05;;;;;;;4.55;4.25;;;1.30;93.70;;;;;;5052355;28;20226;-72
2022/01/30 05:15:33;;;;;;;4.68;4.28;;;1.20;93.90;;;;;;5053128;28;20237;-70
2022/01/30 05:18:00;;;;;;;4.03;3.72;;;1.30;94.00;;;;;;5043160;28;20223;-72
2022/01/30 05:20:29;;;;;;;4.35;4.05;;;1.20;94.20;;;;;;5043277;28;20204;-72
2022/01/30 05:22:57;;;;;;;4.10;3.80;;;1.20;94.10;;;;;;5042367;28;20211;-71
2022/01/30 05:25:24;;;;;;;4.25;3.95;;;1.20;94.20;;;;;;5041758;28;20203;-72
2022/01/30 05:27:52;;;;;;;4.72;4.32;;;1.20;94.20;;;;;;5042754;28;20231;-71
2022/01/30 05:30:21;;;;;;;4.18;3.88;;;1.20;94.20;;;;;;5037366;28;20199;-71
2022/01/30 05:32:48;;;;;;;4.35;4.05;;;1.20;94.20;;;;;;5044587;28;20191;-72
2022/01/30 05:35:16;;;;;;;4.20;3.90;;;1.30;94.20;;;;;;5047870;28;20195;-71
2022/01/30 05:37:44;;;;;;;4.85;4.45;;;1.30;94.30;;;;;;5045312;28;20215;-71
2022/01/30 05:40:12;;;;;;;4.47;4.18;;;1.30;94.30;;;;;;5040247;28;20207;-71
2022/01/30 05:42:39;;;;;;;4.35;4.05;;;1.20;94.30;;;;;;5044001;28;20196;-71
2022/01/30 05:45:15;;;;;;;4.25;3.95;;;1.20;94.30;;;;;;5042710;28;20198;-72
2022/01/30 05:47:48;;;;;;;3.95;3.65;;;1.20;94.40;;;;;;5039745;28;20305;-73
2022/01/30 05:50:16;;;;;;;5.05;4.55;;;1.20;94.60;;;;;;5052154;28;20886;-72
2022/01/30 05:52:43;;;;;;;4.68;4.28;;;1.20;94.60;;;;;;5055240;28;20202;-71
2022/01/30 05:55:10;;;;;;;5.45;4.95;;;1.20;94.80;;;;;;5055160;28;20203;-72
2022/01/30 05:57:37;;;;;;;4.63;4.28;;;1.20;94.70;;;;;;5055725;28;20211;-72
2022/01/30 06:00:06;;;;;;;5.10;4.45;;;1.20;94.60;;;;;;5055104;28;20792;-72
2022/01/30 06:02:33;;;;;;;4.82;4.43;;;1.20;94.50;;;;;;5058247;28;20199;-72
2022/01/30 06:05:02;;;;;;;5.57;5.05;;;1.20;94.40;;;;;;5051427;28;20273;-72
2022/01/30 06:07:31;;;;;;;5.05;4.65;;;1.20;94.50;;;;;;5057982;28;20550;-72
2022/01/30 06:09:58;;;;;;;5.45;5.05;;;1.20;94.60;;;;;;5051704;28;20215;-72
2022/01/30 06:12:25;;;;;;;4.75;4.35;;;1.10;94.70;;;;;;5044777;28;20204;-72
2022/01/30 06:14:52;;;;;;;4.68;4.28;;;1.10;95.10;;;;;;5044823;28;20219;-72
2022/01/30 06:17:19;;;;;;;4.25;3.95;;;1.10;94.90;;;;;;5042189;28;20231;-72
2022/01/30 06:19:46;;;;;;;3.97;3.67;;;1.10;94.70;;;;;;5040690;28;20603;-71
2022/01/30 06:22:15;;;;;;;4.65;4.35;;;1.10;94.70;;;;;;5042414;28;20830;-72
2022/01/30 06:24:42;;;;;;;4.68;4.28;;;1.20;94.70;;;;;;5038030;28;20219;-73
2022/01/30 06:27:09;;;;;;;5.18;4.63;;;1.10;94.70;;;;;;5040457;28;20222;-72
2022/01/30 06:29:36;;;;;;;4.88;4.45;;;1.10;94.80;;;;;;5039196;28;20223;-72
2022/01/30 06:32:03;;;;;;;5.07;4.68;;;1.10;94.90;;;;;;5043529;28;20253;-72
2022/01/30 06:34:30;;;;;;;5.15;4.75;;;1.00;95.00;;;;;;5042259;28;20775;-72
2022/01/30 06:36:58;;;;;;;5.45;5.05;;;1.00;95.20;;;;;;5042006;28;20222;-72
2022/01/30 06:39:26;;;;;;;4.25;3.95;;;1.00;95.30;;;;;;5033656;28;20223;-72
2022/01/30 06:41:53;;;;;;;4.22;3.92;;;1.00;95.40;;;;;;5030429;28;20207;-72
2022/01/30 06:44:20;;;;;;;4.53;4.13;;;1.00;95.60;;;;;;5027066;28;20680;-72
2022/01/30 06:46:47;;;;;;;4.18;3.88;;;1.00;95.60;;;;;;5020067;28;20207;-72
2022/01/30 06:49:14;;;;;;;5.78;5.10;;;1.00;95.70;;;;;;5024089;28;20226;-72
2022/01/30 06:51:41;;;;;;;4.47;4.13;;;1.00;95.80;;;;;;5023953;28;20698;-72
2022/01/30 06:54:09;;;;;;;4.45;4.13;;;1.00;96.10;;;;;;5021565;28;20224;-72
2022/01/30 06:56:37;;;;;;;5.38;4.88;;;1.00;96.00;;;;;;5025045;28;20219;-73
2022/01/30 06:59:04;;;;;;;5.18;4.78;;;1.00;95.90;;;;;;5021287;28;20784;-72
2022/01/30 07:01:31;;;;;;;4.68;4.28;;;0.90;95.90;;;;;;5025936;28;20197;-71
2022/01/30 07:03:58;;;;;;;4.93;4.53;;;0.90;96.10;;;;;;5038583;28;20216;-72
2022/01/30 07:06:25;;;;;;;5.32;4.82;;;0.80;96.40;;;;;;5041091;28;20272;-72
2022/01/30 07:08:52;;;;;;;5.28;4.78;;;0.80;96.30;;;;;;5037321;28;20273;-75
2022/01/30 07:11:19;;;;;;;6.50;5.85;;;0.80;96.30;;;;;;5050089;28;20191;-74
2022/01/30 07:13:48;;;;;;;8.60;6.30;;;0.80;96.80;;;;;;5046826;28;20689;-75
2022/01/30 07:16:15;;;;;;;7.30;5.95;;;0.80;96.60;;;;;;5043935;28;20281;-75
2022/01/30 07:18:43;;;;;;;6.60;6.00;;;0.80;97.10;;;;;;5035086;28;20247;-74
2022/01/30 07:21:10;;;;;;;6.70;6.00;;;0.90;97.00;;;;;;5040991;28;20214;-74
2022/01/30 07:23:37;;;;;;;5.47;4.95;;;0.90;96.90;;;;;;5038875;28;20760;-74
2022/01/30 07:26:04;;;;;;;5.55;5.15;;;0.90;96.90;;;;;;5039136;28;20599;-74
2022/01/30 07:28:32;;;;;;;4.57;4.15;;;1.00;96.90;;;;;;5042243;28;20941;-74
2022/01/30 07:31:00;;;;;;;5.85;5.45;;;1.00;97.00;;;;;;5039252;28;20231;-74
2022/01/30 07:33:27;;;;;;;5.47;5.07;;;1.00;96.90;;;;;;5046969;28;20230;-73
2022/01/30 07:35:56;;;;;;;5.03;4.63;;;1.00;96.80;;;;;;5046901;28;20206;-73
2022/01/30 07:38:24;;;;;;;5.20;4.80;;;1.00;96.60;;;;;;5041741;28;20638;-74
2022/01/30 07:40:51;;;;;;;5.35;4.82;;;1.00;96.60;;;;;;5038054;28;20690;-74
2022/01/30 07:43:19;;;;;;;5.80;5.30;;;1.10;96.50;;;;;;5044718;28;20222;-74
2022/01/30 07:45:46;;;;;;;5.47;5.07;;;1.00;96.80;;;;;;5048131;28;20195;-73
2022/01/30 07:48:15;;;;;;;5.55;5.05;;;1.00;97.20;;;;;;5045236;28;20223;-75
2022/01/30 07:50:42;;;;;;;5.57;5.15;;;1.10;97.00;;;;;;5041788;28;20638;-75
2022/01/30 07:53:09;;;;;;;5.40;4.90;;;1.10;97.20;;;;;;5035502;28;20261;-75
2022/01/30 07:55:37;;;;;;;5.15;4.80;;;1.10;97.30;;;;;;5032238;28;20188;-76
2022/01/30 07:58:04;;;;;;;5.75;5.15;;;1.30;97.40;;;;;;5025846;28;20753;-75
2022/01/30 08:00:31;;;;;;;5.43;5.03;;;2.00;97.00;;;;;;5022437;28;20203;-75
2022/01/30 08:02:58;;;;;;;5.35;4.85;;;3.00;96.20;;;;;;5024977;28;20192;-75
2022/01/30 08:05:26;;;;;;;6.72;6.03;;;4.10;95.40;;;;;;5024004;28;20219;-76
2022/01/30 08:07:53;;;;;;;7.03;6.43;;;5.00;94.20;;;;;;5023099;28;20219;-76
2022/01/30 08:10:21;;;;;;;6.28;5.68;;;5.50;93.50;;;;;;5018579;28;20729;-76
2022/01/30 08:12:48;;;;;;;5.82;5.32;;;6.10;93.20;;;;;;5016925;28;20200;-76
2022/01/30 08:15:15;;;;;;;6.13;5.53;;;6.70;93.00;;;;;;5016864;28;20220;-76
2022/01/30 08:17:42;;;;;;;6.53;5.93;;;7.30;92.10;;;;;;5024412;28;20219;-76
2022/01/30 08:20:10;;;;;;;6.18;5.40;;;8.00;91.50;;;;;;5017867;28;20231;-76
2022/01/30 08:22:49;;;;;;;5.35;4.95;;;8.50;91.10;;;;;;5016752;28;20234;-76
2022/01/30 08:25:17;;;;;;;5.72;5.22;;;8.80;90.40;;;;;;5014195;28;20274;-76
2022/01/30 08:27:44;;;;;;;6.60;6.00;;;9.30;90.10;;;;;;5022906;28;20219;-75
2022/01/30 08:30:11;;;;;;;7.00;5.70;;;9.80;88.50;;;;;;5023876;28;20231;-76
2022/01/30 08:32:40;;;;;;;6.15;5.55;;;9.90;87.30;;;;;;5023639;28;20207;-76
2022/01/30 08:35:08;;;;;;;7.65;6.15;;;10.10;87.30;;;;;;5028521;28;20223;-77
2022/01/30 08:37:36;;;;;;;6.88;5.57;;;10.40;85.80;;;;;;5016256;28;20762;-76
2022/01/30 08:40:06;;;;;;;7.32;6.03;;;10.80;85.30;;;;;;5019915;28;20302;-76
2022/01/30 08:42:33;;;;;;;6.22;5.63;;;11.10;84.40;;;;;;5018467;28;20273;-76
2022/01/30 08:45:01;;;;;;;6.13;5.53;;;11.00;84.50;;;;;;5014752;28;20269;-76
2022/01/30 08:47:28;;;;;;;7.75;5.80;;;10.90;85.50;;;;;;5018603;28;20216;-75
2022/01/30 08:49:55;;;;;;;10.45;6.30;;;11.30;85.40;;;;;;5031575;28;20208;-75
2022/01/30 08:52:23;;;;;;;6.35;4.70;;;11.80;85.90;;;;;;5014726;28;20621;-76
2022/01/30 08:54:51;;;;;;;6.88;5.32;;;12.00;83.00;;;;;;5022766;28;20760;-76
2022/01/30 08:57:20;;;;;;;5.47;4.63;;;11.90;83.00;;;;;;5024904;28;20560;-76
2022/01/30 08:59:47;;;;;;;5.93;5.35;;;11.90;83.20;;;;;;5022456;28;20227;-76
2022/01/30 09:02:15;;;;;;;5.68;4.80;;;12.20;83.40;;;;;;5015683;28;20207;-76
2022/01/30 09:04:42;;;;;;;5.90;5.30;;;12.30;83.40;;;;;;5026421;28;20227;-76
2022/01/30 09:07:09;;;;;;;5.50;5.00;;;12.20;81.80;;;;;;5020868;28;20262;-76
2022/01/30 09:09:36;;;;;;;6.25;5.60;;;12.00;83.00;;;;;;5020819;28;20222;-76
2022/01/30 09:12:04;;;;;;;6.82;5.13;;;12.00;83.60;;;;;;5021578;28;20260;-76
2022/01/30 09:14:33;;;;;;;6.13;4.68;;;11.80;81.70;;;;;;5027649;28;20697;-75
2022/01/30 09:17:00;;;;;;;5.90;5.00;;;11.80;82.40;;;;;;5038027;28;20218;-76
2022/01/30 09:19:27;;;;;;;11.45;5.50;;;11.90;83.40;;;;;;5034171;28;20729;-76
2022/01/30 09:21:54;;;;;;;7.35;5.95;;;12.20;82.80;;;;;;5033162;28;20199;-76
2022/01/30 09:24:21;;;;;;;5.22;4.40;;;12.20;82.80;;;;;;5038211;28;20813;-76
2022/01/30 09:26:48;;;;;;;5.72;5.03;;;12.00;81.70;;;;;;5033486;28;20208;-76
2022/01/30 09:29:15;;;;;;;9.00;5.20;;;11.80;82.30;;;;;;5041210;28;20380;-75
2022/01/30 09:31:43;;;;;;;7.75;5.78;;;11.90;82.00;;;;;;5046402;28;20674;-76
2022/01/30 09:34:10;;;;;;;6.57;5.88;;;12.20;82.60;;;;;;5038790;28;20725;-76
2022/01/30 09:36:37;;;;;;;5.88;5.28;;;13.20;81.10;;;;;;5039638;28;20690;-76
2022/01/30 09:39:04;;;;;;;7.63;5.20;;;14.60;73.20;;;;;;5033712;28;20274;-75
2022/01/30 09:41:33;;;;;;;5.57;4.63;;;16.10;71.80;;;;;;5015676;28;20196;-75
2022/01/30 09:44:02;;;;;;;4.70;4.10;;;18.00;66.30;;;;;;5035566;28;20226;-75
2022/01/30 09:46:31;;;;;;;4.97;4.43;;;19.50;62.10;;;;;;5020292;28;20212;-75
2022/01/30 09:49:01;;;;;;;6.50;5.32;;;20.00;60.20;;;;;;5018987;28;20282;-74
2022/01/30 09:51:28;;;;;;;6.22;4.93;;;19.50;60.00;;;;;;5022961;28;20202;-74
2022/01/30 09:53:55;;;;;;;5.75;4.47;;;19.00;62.00;;;;;;5028347;28;20223;-74
2022/01/30 09:56:22;;;;;;;6.60;5.47;;;18.20;63.70;;;;;;5016951;28;20235;-75
2022/01/30 09:58:50;;;;;;;6.90;6.03;;;17.10;66.70;;;;;;5057850;22;20228;-69
2022/01/30 10:01:17;;;;;;;6.55;5.93;;;16.40;69.30;;;;;;5011264;28;20253;-69
2022/01/30 10:03:44;;;;;;;6.45;5.85;;;15.80;71.30;;;;;;5009279;28;20204;-68
2022/01/30 10:06:17;;;;;;;7.05;5.95;;;15.30;73.40;;;;;;5013147;28;20204;-70
2022/01/30 10:08:44;;;;;;;7.80;6.88;;;14.60;74.30;;;;;;5020801;28;20223;-68
2022/01/30 10:11:30;;;;;;;7.15;6.35;;;14.00;75.00;;;;;;5025136;28;20258;-71
2022/01/30 10:14:05;;;;;;;6.63;5.68;;;13.30;76.20;;;;;;5025489;28;20221;-70
2022/01/30 10:16:37;;;;;;;6.32;5.65;;;13.30;77.10;;;;;;5024054;28;20241;-71
2022/01/30 10:19:10;;;;;;;6.25;5.43;;;13.50;77.60;;;;;;5020765;28;20304;-69
2022/01/30 10:21:39;;;;;;;5.95;5.03;;;13.40;77.50;;;;;;5028902;28;20210;-72
2022/01/30 10:24:23;;;;;;;5.85;5.28;;;13.30;77.90;;;;;;5022413;28;21516;-69
2022/01/30 10:26:51;;;;;;;6.78;5.28;;;12.80;78.10;;;;;;5025812;28;20196;-70
2022/01/30 10:29:23;;;;;;;6.75;5.82;;;12.50;79.20;;;;;;5018990;28;20535;-72
2022/01/30 10:32:01;;;;;;;6.82;6.13;;;12.10;80.30;;;;;;5027845;28;20490;-73
2022/01/30 10:34:28;;;;;;;7.15;6.35;;;12.30;80.60;;;;;;5025075;28;20222;-71
2022/01/30 10:37:18;;;;;;;9.05;7.05;;;12.70;80.30;;;;;;5023386;28;20223;-72
2022/01/30 10:40:06;;;;;;;7.78;6.85;;;12.90;78.90;;;;;;5021558;28;20235;-73
2022/01/30 10:42:40;;;;;;;7.38;6.47;;;12.90;79.00;;;;;;5027532;28;20203;-70
2022/01/30 10:45:09;;;;;;;7.30;6.32;;;12.90;79.80;;;;;;5026523;28;20535;-69
2022/01/30 10:47:37;;;;;;;8.32;7.15;;;13.30;79.80;;;;;;5021474;28;20227;-70
2022/01/30 10:50:14;;;;;;;6.95;6.25;;;13.70;78.80;;;;;;5022674;28;20239;-70
2022/01/30 10:53:03;;;;;;;8.05;5.97;;;13.80;78.20;;;;;;5025513;28;20277;-72
2022/01/30 10:55:35;;;;;;;7.25;6.35;;;13.60;78.10;;;;;;5022498;28;20239;-74
2022/01/30 10:58:04;;;;;;;6.72;6.03;;;13.30;78.50;;;;;;5020851;28;20223;-72
2022/01/30 11:00:42;;;;;;;6.53;5.93;;;13.10;78.70;;;;;;5026517;28;20227;-71
2022/01/30 11:03:11;;;;;;;6.68;5.97;;;12.80;78.40;;;;;;5025446;28;20207;-72
2022/01/30 11:05:58;;;;;;;6.57;5.97;;;12.90;79.10;;;;;;5020632;28;20299;-70
2022/01/30 11:08:29;;;;;;;7.70;6.00;;;12.70;79.20;;;;;;5021018;28;20216;-72
2022/01/30 11:11:02;;;;;;;6.35;5.00;;;13.00;78.90;;;;;;5036840;28;20245;-72
2022/01/30 11:13:33;;;;;;;6.15;5.40;;;13.00;78.20;;;;;;5046501;28;20218;-71
2022/01/30 11:16:56;;;;;;;7.07;6.05;;;13.00;78.80;;;;;;5038913;28;21358;-75
2022/01/30 11:18:51;;;;;;;6.13;5.35;;;13.00;77.70;;;;;;5039501;28;20761;-74
2022/01/30 11:21:21;;;;;;;5.93;5.43;;;13.00;77.20;;;;;;5041836;28;20223;-75
2022/01/30 11:23:52;;;;;;;6.35;5.75;;;13.00;77.60;;;;;;5038908;28;20199;-71
2022/01/30 11:26:20;;;;;;;6.85;6.15;;;12.90;77.60;;;;;;5042222;28;20284;-70
2022/01/30 11:28:47;;;;;;;6.80;6.13;;;13.20;78.00;;;;;;5038094;28;20681;-71
2022/01/30 11:31:17;;;;;;;7.07;5.78;;;13.50;77.10;;;;;;5043341;28;20219;-71
2022/01/30 11:33:45;;;;;;;5.88;5.28;;;13.50;76.80;;;;;;5040187;28;20688;-70
2022/01/30 11:36:13;;;;;;;6.30;5.05;;;13.50;77.50;;;;;;5037676;28;20329;-70
2022/01/30 11:38:41;;;;;;;5.68;5.13;;;13.50;77.30;;;;;;5048792;28;20231;-71
2022/01/30 11:41:11;;;;;;;5.75;5.18;;;13.70;76.90;;;;;;5049006;28;20226;-70
2022/01/30 11:43:39;;;;;;;5.75;4.57;;;14.00;75.90;;;;;;5040300;28;20281;-70
2022/01/30 11:46:15;;;;;;;5.85;4.78;;;14.20;75.20;;;;;;5046254;28;20506;-70
2022/01/30 11:48:42;;;;;;;6.18;4.53;;;14.40;74.70;;;;;;5041166;28;20210;-70
2022/01/30 11:51:10;;;;;;;4.28;3.88;;;14.70;74.90;;;;;;5039502;28;20273;-70
2022/01/30 11:53:38;;;;;;;5.50;4.93;;;14.80;75.20;;;;;;5037681;28;20196;-70
2022/01/30 11:56:06;;;;;;;4.40;4.00;;;15.00;74.60;;;;;;5039821;28;20307;-70
2022/01/30 11:58:47;;;;;;;5.00;4.50;;;15.10;74.10;;;;;;5039386;28;20273;-70
2022/01/30 12:01:35;;;;;;;4.93;4.30;;;15.30;73.80;;;;;;5047531;28;20227;-70
2022/01/30 12:04:04;;;;;;;5.18;4.03;;;15.40;74.00;;;;;;5042697;28;20230;-70
2022/01/30 12:06:34;;;;;;;4.53;4.05;;;15.30;73.40;;;;;;5040484;28;20223;-73
2022/01/30 12:09:02;;;;;;;4.82;4.32;;;15.30;74.00;;;;;;5040683;28;20587;-71
2022/01/30 12:11:55;;;;;;;5.97;4.18;;;15.30;73.80;;;;;;5054626;28;20215;-70
2022/01/30 12:14:55;;;;;;;4.47;4.03;;;15.20;73.40;;;;;;5055683;28;20191;-69
2022/01/30 12:17:45;;;;;;;5.07;4.20;;;15.10;73.50;;;;;;5040812;28;20230;-68
2022/01/30 12:20:12;;;;;;;4.90;4.40;;;15.30;74.60;;;;;;5037411;28;20258;-68
2022/01/30 12:22:42;;;;;;;4.95;4.45;;;15.50;74.70;;;;;;5049642;28;20199;-70
2022/01/30 12:25:24;;;;;;;6.22;4.38;;;15.40;73.20;;;;;;5037535;28;20227;-70
2022/01/30 12:27:54;;;;;;;5.43;4.75;;;15.60;73.20;;;;;;5035887;28;20219;-71
2022/01/30 12:30:34;;;;;;;4.57;4.15;;;15.60;73.80;;;;;;5043521;28;20219;-70
2022/01/30 12:33:02;;;;;;;5.15;4.65;;;15.80;74.00;;;;;;5036298;28;20191;-68
2022/01/30 12:35:29;;;;;;;4.68;4.20;;;15.90;74.30;;;;;;5040846;28;20219;-68
2022/01/30 12:37:57;;;;;;;5.40;4.55;;;16.00;74.20;;;;;;5046061;28;20250;-70
2022/01/30 12:40:24;;;;;;;4.32;3.88;;;15.90;73.00;;;;;;5043662;28;20710;-70
2022/01/30 12:42:51;;;;;;;5.05;3.95;;;16.00;73.40;;;;;;5040675;28;20203;-70
2022/01/30 12:45:18;;;;;;;5.00;4.50;;;15.80;73.20;;;;;;5038365;28;20226;-68
2022/01/30 12:47:52;;;;;;;4.70;4.00;;;15.50;73.60;;;;;;5040798;28;20212;-68
2022/01/30 12:50:25;;;;;;;5.50;4.53;;;15.50;74.00;;;;;;5043946;28;20268;-67
2022/01/30 12:52:53;;;;;;;4.95;4.45;;;15.60;74.10;;;;;;5042637;28;20306;-68
2022/01/30 12:55:22;;;;;;;6.97;4.22;;;15.50;74.00;;;;;;5044532;28;20222;-68
2022/01/30 12:57:53;;;;;;;5.15;4.65;;;15.50;74.60;;;;;;5040059;28;20277;-69
2022/01/30 13:00:21;;;;;;;5.60;4.53;;;15.50;74.40;;;;;;5040103;28;20733;-68
2022/01/30 13:02:56;;;;;;;7.80;4.97;;;15.60;74.50;;;;;;5039801;28;20261;-68
2022/01/30 13:05:25;;;;;;;6.32;4.28;;;15.60;73.80;;;;;;5041253;28;20271;-69
2022/01/30 13:07:53;;;;;;;5.93;4.55;;;15.30;74.40;;;;;;5046633;28;20246;-68
2022/01/30 13:10:21;;;;;;;4.82;4.32;;;15.40;75.10;;;;;;5039774;28;20302;-68
2022/01/30 13:12:48;;;;;;;6.43;4.82;;;15.50;74.80;;;;;;5040434;28;20199;-68
2022/01/30 13:15:17;;;;;;;4.60;4.20;;;15.60;74.60;;;;;;5040088;28;20215;-68
2022/01/30 13:17:45;;;;;;;5.38;4.75;;;15.90;74.60;;;;;;5048981;28;20219;-68
2022/01/30 13:20:15;;;;;;;5.20;4.40;;;16.10;74.80;;;;;;5048111;28;20744;-68
2022/01/30 13:22:44;;;;;;;5.15;4.45;;;16.20;74.80;;;;;;5047880;28;20589;-68
2022/01/30 13:25:13;;;;;;;4.32;3.92;;;16.30;74.70;;;;;;5047194;28;20708;-68
2022/01/30 13:27:40;;;;;;;4.45;4.05;;;16.30;74.10;;;;;;5043509;28;20735;-70
2022/01/30 13:30:08;;;;;;;4.55;4.13;;;16.30;73.70;;;;;;5046405;28;20231;-70
2022/01/30 13:32:41;;;;;;;5.05;4.53;;;16.20;73.70;;;;;;5045792;28;20200;-71
2022/01/30 13:35:13;;;;;;;6.50;4.85;;;16.00;74.10;;;;;;5051817;28;20219;-71
2022/01/30 13:37:41;;;;;;;4.40;3.97;;;16.00;75.00;;;;;;5053713;28;20219;-71
2022/01/30 13:40:19;;;;;;;4.43;4.03;;;16.10;75.10;;;;;;5043533;28;20219;-71
2022/01/30 13:42:52;;;;;;;4.93;4.03;;;16.20;73.70;;;;;;5034055;28;20196;-70
2022/01/30 13:48:12;;;;;;;4.82;3.67;;;16.10;74.70;;;;;;5043389;28;20222;-71